createdAt,value
2023-08-22T00:01:51.739Z,20.20
2023-08-22T00:04:18.535Z,20.20
2023-08-22T00:12:09.806Z,20.20
2023-08-22T00:14:36.640Z,20.10
2023-08-22T00:17:04.119Z,20.10
2023-08-22T00:19:31.014Z,20.00
2023-08-22T00:21:58.090Z,20.20
2023-08-22T00:24:28.846Z,20.20
2023-08-22T00:26:56.521Z,20.20
2023-08-22T00:29:23.835Z,20.10
2023-08-22T00:31:50.638Z,20.20
2023-08-22T00:34:17.432Z,20.10
2023-08-22T00:36:44.250Z,20.30
2023-08-22T00:39:11.390Z,20.20
2023-08-22T00:41:38.124Z,20.00
2023-08-22T00:44:05.053Z,20.10
2023-08-22T00:46:32.474Z,20.10
2023-08-22T00:48:59.748Z,20.10
2023-08-22T00:51:27.270Z,20.00
2023-08-22T00:53:54.064Z,20.00
2023-08-22T00:56:21.276Z,20.00
2023-08-22T00:58:48.628Z,20.00
2023-08-22T01:01:16.406Z,19.90
2023-08-22T01:03:43.233Z,19.90
2023-08-22T01:06:15.828Z,19.90
2023-08-22T01:08:49.895Z,20.00
2023-08-22T01:11:26.566Z,19.90
2023-08-22T01:13:56.357Z,19.70
2023-08-22T01:16:24.842Z,19.80
2023-08-22T01:18:52.253Z,19.80
2023-08-22T01:21:20.883Z,19.80
2023-08-22T01:23:48.305Z,19.70
2023-08-22T01:26:16.020Z,19.70
2023-08-22T01:28:46.758Z,19.70
2023-08-22T01:31:23.026Z,19.60
2023-08-22T01:33:50.138Z,19.60
2023-08-22T01:36:20.533Z,19.60
2023-08-22T01:38:50.259Z,19.50
2023-08-22T01:41:18.236Z,19.50
2023-08-22T01:43:45.688Z,19.50
2023-08-22T01:46:12.883Z,19.50
2023-08-22T01:48:40.178Z,19.40
2023-08-22T01:51:07.575Z,19.80
2023-08-22T01:53:34.785Z,19.30
2023-08-22T01:56:02.024Z,19.40
2023-08-22T01:58:29.408Z,19.20
2023-08-22T02:00:56.199Z,19.20
2023-08-22T02:03:25.175Z,19.30
2023-08-22T02:05:52.544Z,19.20
2023-08-22T02:08:19.285Z,19.30
2023-08-22T02:10:46.453Z,19.20
2023-08-22T02:13:13.211Z,19.30
2023-08-22T02:15:40.417Z,19.50
2023-08-22T02:18:07.482Z,19.10
2023-08-22T02:20:34.686Z,19.30
2023-08-22T02:23:04.175Z,19.10
2023-08-22T02:25:33.353Z,19.00
2023-08-22T02:28:00.917Z,19.00
2023-08-22T02:30:28.097Z,19.00
2023-08-22T02:32:55.030Z,18.90
2023-08-22T02:35:22.369Z,18.90
2023-08-22T02:37:51.114Z,18.90
2023-08-22T02:40:18.514Z,18.80
2023-08-22T02:42:45.282Z,18.80
2023-08-22T02:53:18.795Z,18.70
2023-08-22T02:58:28.767Z,18.70
2023-08-22T03:03:33.269Z,18.70
2023-08-22T03:06:01.117Z,19.50
2023-08-22T03:08:28.445Z,18.80
2023-08-22T03:11:01.341Z,18.80
2023-08-22T03:21:37.827Z,18.80
2023-08-22T03:29:29.545Z,18.70
2023-08-22T03:31:58.963Z,18.70
2023-08-22T03:34:26.103Z,18.70
2023-08-22T03:36:52.866Z,18.80
2023-08-22T03:39:19.985Z,18.80
2023-08-22T03:41:46.759Z,18.70
2023-08-22T03:44:15.148Z,18.70
2023-08-22T03:46:41.940Z,18.70
2023-08-22T03:54:26.740Z,18.60
2023-08-22T03:56:53.518Z,18.60
2023-08-22T03:59:20.276Z,18.60
2023-08-22T04:01:47.616Z,18.90
2023-08-22T04:04:15.936Z,18.70
2023-08-22T04:06:43.628Z,18.70
2023-08-22T04:09:10.570Z,18.80
2023-08-22T04:11:41.072Z,18.80
2023-08-22T04:14:08.017Z,19.20
2023-08-22T04:16:35.288Z,19.00
2023-08-22T04:19:02.419Z,19.10
2023-08-22T04:21:29.618Z,19.10
2023-08-22T04:23:57.814Z,19.40
2023-08-22T04:26:24.623Z,19.50
2023-08-22T04:28:52.252Z,19.60
2023-08-22T04:31:19.077Z,19.80
2023-08-22T04:33:45.872Z,20.20
2023-08-22T04:36:13.001Z,20.00
2023-08-22T04:38:39.767Z,20.10
2023-08-22T04:41:06.978Z,20.20
2023-08-22T04:43:33.745Z,20.70
2023-08-22T04:46:03.780Z,20.30
2023-08-22T04:48:30.813Z,20.20
2023-08-22T04:50:57.752Z,20.20
2023-08-22T04:53:26.121Z,20.20
2023-08-22T04:55:53.001Z,20.20
2023-08-22T04:58:20.131Z,20.10
2023-08-22T05:00:47.222Z,20.70
2023-08-22T05:03:16.693Z,20.40
2023-08-22T05:05:43.636Z,20.60
2023-08-22T05:08:10.427Z,20.60
2023-08-22T05:10:37.649Z,20.60
2023-08-22T05:13:04.575Z,20.60
2023-08-22T05:15:31.767Z,20.60
2023-08-22T05:17:58.581Z,20.80
2023-08-22T05:20:25.397Z,20.80
2023-08-22T05:22:52.493Z,20.90
2023-08-22T05:25:19.419Z,21.00
2023-08-22T05:27:46.593Z,21.10
2023-08-22T05:30:13.460Z,21.10
2023-08-22T05:32:41.675Z,21.10
2023-08-22T05:35:09.230Z,21.20
2023-08-22T05:37:36.630Z,21.30
2023-08-22T05:40:04.740Z,21.40
2023-08-22T05:42:31.879Z,21.50
2023-08-22T05:44:59.022Z,21.70
2023-08-22T05:47:26.324Z,21.80
2023-08-22T05:49:53.171Z,21.80
2023-08-22T05:52:20.940Z,22.10
2023-08-22T05:54:47.732Z,22.20
2023-08-22T05:57:14.474Z,22.30
2023-08-22T05:59:41.254Z,22.60
2023-08-22T06:02:09.075Z,22.40
2023-08-22T06:04:35.915Z,22.50
2023-08-22T06:07:05.502Z,22.70
2023-08-22T06:09:32.711Z,22.80
2023-08-22T06:11:59.964Z,22.90
2023-08-22T06:14:27.168Z,23.10
2023-08-22T06:16:53.935Z,23.20
2023-08-22T06:19:21.402Z,23.50
2023-08-22T06:21:48.260Z,23.80
2023-08-22T06:24:15.052Z,23.40
2023-08-22T06:26:42.774Z,23.70
2023-08-22T06:29:10.319Z,23.80
2023-08-22T06:31:37.724Z,23.70
2023-08-22T06:34:05.033Z,24.10
2023-08-22T06:36:31.840Z,24.10
2023-08-22T06:38:58.662Z,25.30
2023-08-22T06:41:25.488Z,24.60
2023-08-22T06:43:52.316Z,24.80
2023-08-22T06:46:23.259Z,24.70
2023-08-22T06:48:52.941Z,24.60
2023-08-22T06:51:20.197Z,25.10
2023-08-22T06:53:47.056Z,25.50
2023-08-22T06:56:14.205Z,26.00
2023-08-22T07:01:11.515Z,26.40
2023-08-22T07:03:38.493Z,26.80
2023-08-22T07:06:05.521Z,26.80
2023-08-22T07:13:52.483Z,27.90
2023-08-22T07:16:19.366Z,28.40
2023-08-22T07:18:46.252Z,28.40
2023-08-22T07:21:13.658Z,28.90
2023-08-22T07:23:40.449Z,29.40
2023-08-22T07:26:07.636Z,29.70
2023-08-22T07:28:36.731Z,29.70
2023-08-22T07:31:07.830Z,30.30
2023-08-22T07:33:34.713Z,30.50
2023-08-22T07:36:03.278Z,30.40
2023-08-22T07:38:30.846Z,31.00
2023-08-22T07:40:57.601Z,31.60
2023-08-22T07:43:24.821Z,32.10
2023-08-22T07:45:51.693Z,32.10
2023-08-22T07:48:18.504Z,31.50
2023-08-22T07:50:45.256Z,32.30
2023-08-22T07:53:12.065Z,33.10
2023-08-22T07:55:38.851Z,32.40
2023-08-22T07:58:05.606Z,32.20
2023-08-22T08:00:32.904Z,32.60
2023-08-22T08:02:59.777Z,32.70
2023-08-22T08:08:09.343Z,32.90
2023-08-22T08:10:38.104Z,33.00
2023-08-22T08:13:05.080Z,32.80
2023-08-22T08:15:32.517Z,32.80
2023-08-22T08:18:00.579Z,32.90
2023-08-22T08:20:27.484Z,32.80
2023-08-22T08:25:29.812Z,32.70
2023-08-22T08:27:57.001Z,33.60
2023-08-22T08:30:23.837Z,33.60
2023-08-22T08:32:50.644Z,33.20
2023-08-22T08:54:06.506Z,33.90
2023-08-22T08:56:33.419Z,33.40
2023-08-22T09:01:45.638Z,33.40
2023-08-22T09:04:12.908Z,33.60
2023-08-22T09:06:39.680Z,33.00
2023-08-22T09:09:09.931Z,33.80
2023-08-22T09:11:46.659Z,33.00
2023-08-22T09:14:20.584Z,33.80
2023-08-22T09:16:49.118Z,33.60
2023-08-22T09:19:16.459Z,33.60
2023-08-22T09:22:00.767Z,33.20
2023-08-22T09:24:31.190Z,33.70
2023-08-22T09:29:43.979Z,33.80
2023-08-22T09:32:10.872Z,33.10
2023-08-22T09:34:37.743Z,32.00
2023-08-22T09:37:04.602Z,31.90
2023-08-22T09:39:34.597Z,31.80
2023-08-22T09:42:04.756Z,31.80
2023-08-22T09:44:31.631Z,32.20
2023-08-22T09:46:58.785Z,32.20
2023-08-22T09:52:04.512Z,31.80
2023-08-22T09:54:31.604Z,31.50
2023-08-22T09:56:59.758Z,31.10
2023-08-22T09:59:27.748Z,31.00
2023-08-22T10:01:56.308Z,31.90
2023-08-22T10:07:06.078Z,31.70
2023-08-22T10:09:33.423Z,31.50
2023-08-22T10:12:03.663Z,31.40
2023-08-22T10:14:39.112Z,32.20
2023-08-22T10:17:07.148Z,31.30
2023-08-22T10:19:34.031Z,31.10
2023-08-22T10:22:15.045Z,30.80
2023-08-22T10:24:43.296Z,31.00
2023-08-22T10:27:15.454Z,30.70
2023-08-22T10:29:47.315Z,30.80
2023-08-22T10:32:23.323Z,30.70
2023-08-22T10:34:50.488Z,30.50
2023-08-22T10:37:24.018Z,30.20
2023-08-22T10:39:52.602Z,30.80
2023-08-22T10:42:27.061Z,30.10
2023-08-22T10:44:57.920Z,30.00
2023-08-22T10:47:31.802Z,30.30
2023-08-22T10:50:15.910Z,30.60
2023-08-22T10:52:45.662Z,30.60
2023-08-22T10:55:13.822Z,30.70
2023-08-22T11:00:25.297Z,30.70
2023-08-22T11:05:43.626Z,30.50
2023-08-22T11:08:11.021Z,30.40
2023-08-22T11:10:39.682Z,30.50
2023-08-22T11:13:11.310Z,30.30
2023-08-22T11:15:39.153Z,30.20
2023-08-22T11:20:56.820Z,30.30
2023-08-22T11:23:23.700Z,30.40
2023-08-22T11:25:50.840Z,30.90
2023-08-22T11:28:17.951Z,31.20
2023-08-22T11:30:45.356Z,31.10
2023-08-22T11:33:20.933Z,31.10
2023-08-22T11:35:47.852Z,30.70
2023-08-22T11:38:14.674Z,30.60
2023-08-22T11:43:23.759Z,30.90
2023-08-22T11:45:50.618Z,31.00
2023-08-22T11:48:20.781Z,31.60
2023-08-22T11:50:47.986Z,30.30
2023-08-22T11:53:17.073Z,30.50
2023-08-22T11:55:48.934Z,30.80
2023-08-22T12:00:56.735Z,31.10
2023-08-22T12:03:23.580Z,31.10
2023-08-22T12:05:50.826Z,30.70
2023-08-22T12:08:22.091Z,30.70
2023-08-22T12:10:53.941Z,30.70
2023-08-22T12:13:22.713Z,30.70
2023-08-22T12:15:50.297Z,30.60
2023-08-22T12:18:18.384Z,30.70
2023-08-22T12:20:47.273Z,30.90
2023-08-22T12:25:43.524Z,30.80
2023-08-22T12:28:11.548Z,30.90
2023-08-22T12:30:44.530Z,30.80
2023-08-22T12:35:40.491Z,31.10
2023-08-22T12:38:09.035Z,30.80
2023-08-22T12:53:17.022Z,31.20
2023-08-22T13:15:33.894Z,30.90
2023-08-22T13:27:51.405Z,31.30
2023-08-22T13:37:44.880Z,31.20
2023-08-22T13:42:41.340Z,31.30
2023-08-22T13:45:09.145Z,31.30
2023-08-22T13:47:39.796Z,31.30
2023-08-22T13:50:07.776Z,31.10
2023-08-22T13:52:34.534Z,30.90
2023-08-22T13:55:01.314Z,32.10
2023-08-22T13:57:29.196Z,30.80
2023-08-22T14:09:49.741Z,30.10
2023-08-22T14:14:43.783Z,30.80
2023-08-22T14:46:41.414Z,30.60
2023-08-22T14:51:40.342Z,30.40
2023-08-22T14:56:35.937Z,30.30
2023-08-22T14:59:03.129Z,30.00
2023-08-22T15:01:31.517Z,29.90
2023-08-22T15:48:35.936Z,26.90
2023-08-22T15:51:02.871Z,26.80
2023-08-22T15:53:31.250Z,26.20
2023-08-22T15:55:58.335Z,25.80
2023-08-22T15:58:25.161Z,25.60
2023-08-22T16:03:32.497Z,25.80
2023-08-22T16:05:59.391Z,25.70
2023-08-22T16:08:26.822Z,25.80
2023-08-22T16:10:55.257Z,25.90
2023-08-22T16:13:22.098Z,26.20
2023-08-22T16:15:50.197Z,26.30
2023-08-22T16:18:16.985Z,26.50
2023-08-22T16:20:45.873Z,26.20
2023-08-22T16:23:13.100Z,26.00
2023-08-22T16:25:44.134Z,25.80
2023-08-22T16:28:10.923Z,25.70
2023-08-22T16:30:37.800Z,25.30
2023-08-22T16:33:05.288Z,25.00
2023-08-22T16:35:32.056Z,24.80
2023-08-22T16:37:58.804Z,24.60
2023-08-22T16:40:25.931Z,24.60
2023-08-22T16:42:52.709Z,24.40
2023-08-22T16:45:19.908Z,24.00
2023-08-22T16:47:47.180Z,23.90
2023-08-22T16:50:14.287Z,23.80
2023-08-22T16:52:41.138Z,23.70
2023-08-22T16:55:08.229Z,23.80
2023-08-22T16:57:35.228Z,23.80
2023-08-22T17:00:02.849Z,23.80
2023-08-22T17:02:29.629Z,24.00
2023-08-22T17:04:56.886Z,24.10
2023-08-22T17:07:23.693Z,24.10
2023-08-22T17:09:50.921Z,24.00
2023-08-22T17:12:19.066Z,24.70
2023-08-22T17:14:45.926Z,24.40
2023-08-22T17:22:07.893Z,24.10
2023-08-22T17:24:34.666Z,24.10
2023-08-22T18:21:11.844Z,22.70
2023-08-22T18:23:40.421Z,22.60
2023-08-22T18:26:12.604Z,22.70
2023-08-22T18:36:55.227Z,22.70
2023-08-22T18:51:52.488Z,22.60
2023-08-22T19:43:59.774Z,22.50
2023-08-22T20:01:58.234Z,22.40
2023-08-22T20:07:52.662Z,22.50
2023-08-22T20:12:55.317Z,22.50
2023-08-22T20:15:26.686Z,22.50
2023-08-22T20:17:57.784Z,22.50
2023-08-22T20:20:26.501Z,22.50
2023-08-22T20:22:57.491Z,22.50
2023-08-22T20:25:24.327Z,22.30
2023-08-22T20:30:54.362Z,22.60
2023-08-22T20:36:09.396Z,22.60
2023-08-22T20:38:36.815Z,22.50
2023-08-22T20:41:04.032Z,22.60
2023-08-22T20:43:32.152Z,22.50
2023-08-22T20:46:02.609Z,22.50
2023-08-22T20:48:29.994Z,22.20
2023-08-22T20:50:57.253Z,22.20
2023-08-22T20:53:24.905Z,22.00
2023-08-22T20:55:55.798Z,21.90
2023-08-22T20:58:23.828Z,21.90
2023-08-22T21:00:52.254Z,21.80
2023-08-22T21:03:24.641Z,21.60
2023-08-22T21:05:54.202Z,21.70
2023-08-22T21:08:21.059Z,21.70
2023-08-22T21:10:50.538Z,21.60
2023-08-22T21:13:17.421Z,21.60
2023-08-22T21:15:47.347Z,21.40
2023-08-22T21:18:17.101Z,21.50
2023-08-22T21:20:53.923Z,21.30
2023-08-22T21:23:22.189Z,21.20
2023-08-22T21:25:53.476Z,21.20
2023-08-22T21:28:23.568Z,21.00
2023-08-22T21:30:53.014Z,20.90
2023-08-22T21:33:27.265Z,20.90
2023-08-22T21:35:59.583Z,20.80
2023-08-22T21:38:33.458Z,20.90
2023-08-22T21:41:04.956Z,20.80
2023-08-22T21:43:38.250Z,20.80
2023-08-22T21:46:12.312Z,20.80
2023-08-22T21:48:42.561Z,20.80
2023-08-22T21:51:10.327Z,20.70
2023-08-22T21:53:40.591Z,20.70
2023-08-22T21:56:11.971Z,20.70
2023-08-22T21:58:42.223Z,20.70
2023-08-22T22:01:16.554Z,20.70
2023-08-22T22:03:45.335Z,20.70
2023-08-22T22:06:13.000Z,20.60
2023-08-22T22:08:40.107Z,20.60
2023-08-22T22:11:10.101Z,20.60
2023-08-22T22:13:36.959Z,20.60
2023-08-22T22:16:04.922Z,20.50
2023-08-22T22:18:32.120Z,20.50
2023-08-22T22:21:01.019Z,20.50
2023-08-22T22:23:28.298Z,20.40
2023-08-22T22:26:11.456Z,20.40
2023-08-22T22:28:40.347Z,20.40
2023-08-22T22:31:12.981Z,20.30
2023-08-22T22:33:40.965Z,20.50
2023-08-22T22:36:08.718Z,20.40
2023-08-22T22:38:36.238Z,20.30
2023-08-22T22:41:04.212Z,20.20
2023-08-22T22:43:33.832Z,20.20
2023-08-22T22:46:01.434Z,20.20
2023-08-22T22:48:28.516Z,20.20
2023-08-22T22:50:56.130Z,20.20
2023-08-22T22:53:23.165Z,20.20
2023-08-22T22:55:50.420Z,20.10
2023-08-22T22:58:18.515Z,20.20
2023-08-22T23:00:45.458Z,20.20
2023-08-22T23:03:13.756Z,20.00
2023-08-22T23:05:41.154Z,20.00
2023-08-22T23:08:09.252Z,20.10
2023-08-22T23:10:36.056Z,20.00
2023-08-22T23:13:03.395Z,20.10
2023-08-22T23:15:30.865Z,20.10
2023-08-22T23:17:57.707Z,20.00
2023-08-22T23:20:24.994Z,20.00
2023-08-22T23:22:51.903Z,20.10
2023-08-22T23:25:19.296Z,20.00
2023-08-22T23:27:46.414Z,20.00
2023-08-22T23:30:17.243Z,20.00
2023-08-22T23:32:44.835Z,20.00
2023-08-22T23:35:11.715Z,19.80
2023-08-22T23:37:40.079Z,19.90
2023-08-22T23:40:27.985Z,19.90
2023-08-22T23:42:57.318Z,20.00
2023-08-22T23:45:26.405Z,19.80
2023-08-22T23:47:53.654Z,19.80
2023-08-22T23:50:20.950Z,19.80
2023-08-22T23:52:48.201Z,19.70
2023-08-22T23:55:15.167Z,19.80
2023-08-22T23:57:42.629Z,19.70
